Terminal Aerodrome Forecast
Issued by NWS Cleveland, OH

Home | Current Version | Previous Version | Text Only | Print | Product List | Glossary On
Versions: 1 2 3 4 5 6 7 8 9 10 11 12 13 14 15 16 17 18 19 20 21 22 23 24 25 26 27
000
FTUS41 KCLE 291537 AAA
TAFMFD
TAF AMD
KMFD 291537Z 2916/3012 32005KT 2SM BR OVC002
     FM291700 33005KT 4SM BR OVC007
     FM291800 32007KT P6SM OVC008
     FM292100 35007KT P6SM OVC015
     FM300000 VRB04KT P6SM SCT018=

USA.gov is the U.S. government's official web portal to all federal, state and local government web resources and services.